Have a Safe July 4th! 

Flight Track Log - Related Links

Times and Time Zones

All times are in EDT time to prevent confusion due to time zone crossing. See the UAL4150 flight status page for this flight to view local times or setup timezone preferences in your user account.

Time Position Orientation Groundspeed Altitude Reporting Facility
EDT Latitude Longitude Course Direction KTS MPH feet Rate Location/Type
Thu 08:16:37 AM 29.9572 -95.3392 90° East 224 258 600  Level Houston Center
Thu 08:17:50 AM 29.9200 -95.2786 125° Southeast 192 221 2,800 1,600 Climbing Houston Center
Thu 08:18:52 AM 29.8833 -95.2228 127° Southeast 223 257 4,200 1,366 Climbing Houston Center
Thu 08:19:53 AM 29.8675 -95.1428 103° East 270 311 5,600 1,672 Climbing Houston Center
Thu 08:20:54 AM 29.8850 -95.0611 76° East 265 305 7,600 1,820 Climbing Houston Center
Thu 08:21:55 AM 29.9047 -94.9792 74° East 266 306 9,300 1,319 Climbing Houston Center
Thu 08:22:00 AM 29.9833 -94.5832 90° East  Level FlightAware Approximate
Thu 08:23:15 AM 29.9242 -94.8664 79° East 288 331 10,700  Level Houston Center
Thu 08:24:17 AM 29.9375 -94.7653 81° East 314 361 11,700 976 Climbing Houston Center
Thu 08:25:18 AM 29.9511 -94.6589 82° East 332 382 12,700 976 Climbing Houston Center
Thu 08:26:20 AM 29.9664 -94.5467 81° East 347 399 13,700 1,024 Climbing Houston Center
Thu 08:27:21 AM 29.9811 -94.4172 82° East 357 411 14,800 1,024 Climbing Houston Center
Thu 08:28:23 AM 29.9967 -94.3022 81° East 362 417 15,800 976 Climbing Houston Center
Thu 08:29:24 AM 30.0103 -94.1869 82° East 365 420 16,800 927 Climbing Houston Center
Thu 08:30:26 AM 30.0253 -94.0717 81° East 364 419 17,700 878 Climbing Houston Center
Thu 08:31:27 AM 30.0392 -93.9592 82° East 360 414 18,600 927 Climbing Houston Center
Thu 08:32:29 AM 30.0522 -93.8469 82° East 357 411 19,600 1,016 Climbing Houston Center
Thu 08:33:31 AM 30.0686 -93.7117 82° East 357 411 20,700 1,024 Climbing Houston Center
Thu 08:34:32 AM 30.0825 -93.5994 82° East 357 411 21,700 976 Climbing Houston Center
Thu 08:35:34 AM 30.0956 -93.4864 82° East 360 414 22,700 927 Climbing Houston Center
Thu 08:36:35 AM 30.1083 -93.3739 82° East 358 412 23,600 927 Climbing Houston Center
Thu 08:37:37 AM 30.1206 -93.2628 83° East 355 409 24,600 1,016 Climbing Houston Center
Thu 08:38:39 AM 30.1372 -93.1306 82° East 350 403 25,700 1,024 Climbing Houston Center
Thu 08:39:40 AM 30.1567 -93.0225 78° East 347 399 26,700 976 Climbing Houston Center
Thu 08:40:42 AM 30.1781 -92.9167 77° East 342 394 27,700 927 Climbing Houston Center
Thu 08:41:43 AM 30.1983 -92.8108 77° East 339 390 28,600 927 Climbing Houston Center
Thu 08:42:45 AM 30.2189 -92.7044 77° East 341 392 29,600 871 Climbing Houston Center
Thu 08:43:47 AM 30.2392 -92.6003 77° East 336 387 30,400 634 Climbing Houston Center
Thu 08:44:48 AM 30.2594 -92.4922 78° East 342 394 30,900 293 Climbing Houston Center
Thu 08:45:50 AM 30.2872 -92.3558 77° East 364 419 31,000 48 Climbing Houston Center
Thu 08:46:52 AM 30.3094 -92.2294 78° East 387 445 31,000  Level Houston Center
Thu 08:47:53 AM 30.3342 -92.1011 77° East 409 471 31,000  Level Houston Center
Thu 08:48:55 AM 30.3597 -91.9675 77° East 425 489 31,000  Level Houston Center
Thu 08:49:57 AM 30.3864 -91.8311 77° East 435 501 31,000  Level Houston Center
Thu 08:50:59 AM 30.4142 -91.6772 78° East 441 507 31,000  Level Houston Center
Thu 08:52:00 AM 30.4406 -91.5358 78° East 447 514 31,000  Level Houston Center
Thu 08:53:02 AM 30.4672 -91.3953 78° East 448 516 31,000  Level Houston Center
Thu 08:54:04 AM 30.4939 -91.2561 77° East 444 511 31,000  Level Houston Center
Thu 08:55:06 AM 30.5258 -91.1183 75° East 441 507 31,000  Level Houston Center
Thu 08:56:08 AM 30.5567 -90.9814 75° East 441 507 31,000  Level Houston Center
Thu 08:57:09 AM 30.5953 -90.8164 75° East 442 509 31,000  Level Houston Center
Thu 08:58:11 AM 30.6253 -90.6797 76° East 439 505 31,000  Level Houston Center
Thu 08:59:13 AM 30.6575 -90.5419 75° East 440 506 31,000  Level Houston Center
Thu 09:00:15 AM 30.6878 -90.4031 76° East 442 509 31,000  Level Houston Center
Thu 09:01:17 AM 30.7186 -90.2656 75° East 441 507 31,000  Level Houston Center
Thu 09:02:19 AM 30.7492 -90.1272 76° East 439 505 31,000  Level Houston Center
Thu 09:03:20 AM 30.7797 -89.9881 76° East 440 506 31,000  Level Houston Center
Thu 09:04:22 AM 30.8100 -89.8486 76° East 441 507 31,000  Level Houston Center
Thu 09:05:24 AM 30.8469 -89.6794 76° East 441 507 31,000  Level Houston Center
Thu 09:06:26 AM 30.8767 -89.5428 76° East 441 507 31,000  Level Houston Center
Thu 09:07:28 AM 30.9056 -89.4042 76° East 440 506 31,000  Level Houston Center
Thu 09:08:30 AM 30.9344 -89.2664 76° East 438 504 31,000  Level Houston Center
Thu 09:09:32 AM 30.9633 -89.1275 76° East 439 505 31,000  Level Houston Center
Thu 09:10:34 AM 30.9925 -88.9897 76° East 439 505 31,000  Level Houston Center
Thu 09:11:36 AM 31.0225 -88.8436 76° East 436 502 31,000  Level Houston Center
Thu 09:12:38 AM 31.0508 -88.7053 77° East 438 504 31,000  Level Houston Center
Thu 09:13:40 AM 31.0847 -88.5511 76° East 437 503 31,000  Level Houston Center
Thu 09:14:42 AM 31.1356 -88.4269 64° Northeast 430 495 31,000  Level Houston Center
Thu 09:15:44 AM 31.2044 -88.3164 54° Northeast 423 487 31,000  Level Houston Center
Thu 09:16:46 AM 31.2822 -88.1911 54° Northeast 424 488 31,000  Level Houston Center
Thu 09:17:48 AM 31.3506 -88.0792 54° Northeast 422 486 31,000  Level Houston Center
Thu 09:18:50 AM 31.4189 -87.9669 54° Northeast 423 487 31,000 -629 Level Houston Center
Thu 09:19:52 AM 31.4883 -87.8533 54° Northeast 427 491 29,700 -1,597 Descending Houston Center
Thu 09:20:54 AM 31.5594 -87.7344 55° Northeast 443 510 27,700 -1,887 Descending Houston Center
Thu 09:21:56 AM 31.6311 -87.6164 54° Northeast 447 514 25,800 -1,306 Descending Houston Center
Thu 09:22:58 AM 31.7169 -87.4736 55° Northeast 445 512 25,000 -387 Descending Houston Center
Thu 09:24:00 AM 31.7886 -87.3564 54° Northeast 442 509 25,000 -96 Level Houston Center
Thu 09:25:03 AM 31.8572 -87.2397 55° Northeast 436 502 24,800 -480 Descending Houston Center
Thu 09:26:05 AM 31.9256 -87.1264 55° Northeast 428 493 24,000 -387 Descending Houston Center
Thu 09:27:07 AM 31.9942 -87.0122 55° Northeast 425 489 24,000  Level Houston Center
Thu 09:28:09 AM 32.0636 -86.8981 54° Northeast 429 494 24,000  Level Houston Center
Thu 09:29:06 AM 32.1422 -86.7664 55° Northeast 428 493 24,000  Level Atlanta Center
Thu 09:30:06 AM 32.2111 -86.6681 50° Northeast 428 493 24,000  Level Atlanta Center
Thu 09:31:06 AM 32.2764 -86.5494 57° Northeast 428 493 24,000  Level Atlanta Center
Thu 09:32:06 AM 32.3475 -86.4336 54° Northeast 428 493 24,000  Level Atlanta Center
Thu 09:33:06 AM 32.4081 -86.3144 59° Northeast 422 486 24,000  Level Atlanta Center
Thu 09:34:06 AM 32.4794 -86.1883 56° Northeast 422 486 24,000  Level Atlanta Center
Thu 09:35:06 AM 32.5436 -86.0839 54° Northeast 432 497 24,000  Level Atlanta Center
Thu 09:36:06 AM 32.6081 -85.9719 56° Northeast 427 491 24,000 -100 Level Atlanta Center
Thu 09:37:06 AM 32.6767 -85.8550 55° Northeast 422 486 23,800 -500 Descending Atlanta Center
Thu 09:38:06 AM 32.7408 -85.7403 56° Northeast 422 486 23,000 -400 Descending Atlanta Center
Thu 09:39:06 AM 32.8072 -85.6281 55° Northeast 422 486 23,000 -150 Level Atlanta Center
Thu 09:40:06 AM 32.8733 -85.5131 56° Northeast 422 486 22,700 -950 Descending Atlanta Center
Thu 09:41:06 AM 32.9372 -85.4025 55° Northeast 416 479 21,100 -1,900 Descending Atlanta Center
Thu 09:42:06 AM 32.9989 -85.2947 56° Northeast 410 472 18,900 -2,150 Descending Atlanta Center
Thu 09:43:06 AM 33.0625 -85.1939 53° Northeast 397 457 16,800 -2,150 Descending Atlanta Center
Thu 09:44:06 AM 33.1364 -85.0981 47° Northeast 374 430 14,600 -1,400 Descending Atlanta Center
Thu 09:45:06 AM 33.2019 -85.0094 49° Northeast 367 422 14,000 -300 Descending Atlanta Center
Thu 09:46:06 AM 33.2692 -84.9183 49° Northeast 361 415 14,000 -700 Level Atlanta Center
Thu 09:47:06 AM 33.3367 -84.8319 47° Northeast 356 410 12,600 -1,300 Descending Atlanta Center
Thu 09:48:06 AM 33.4042 -84.7381 49° Northeast 356 410 11,400 -800 Descending Atlanta Center
Thu 09:49:06 AM 33.4714 -84.6464 49° Northeast 349 402 11,000 -200 Descending Atlanta Center
Thu 09:50:06 AM 33.5258 -84.5744 48° Northeast 305 351 11,000 -600 Level Atlanta Center
Thu 09:51:06 AM 33.5472 -84.4975 72° East 243 280 9,800 -1,350 Descending Atlanta Center
Thu 09:52:06 AM 33.5453 -84.4128 92° East 243 280 8,300 -1,467 Descending Atlanta Center
Thu 09:52:36 AM 33.5500 -84.3667 83° East 256 295 7,600 -1,694 Descending Atlanta TRACON
Thu 09:53:31 AM 33.5500 -84.2833 90° East 248 285 5,900 -1,826 Descending Atlanta TRACON
Thu 09:54:31 AM 33.5500 -84.2000 90° East 245 282 4,100 -1,400 Descending Atlanta TRACON
Thu 09:55:31 AM 33.5500 -84.1333 90° East 242 278 3,100 -550 Descending Atlanta TRACON
Thu 09:56:31 AM 33.5500 -84.0500 90° East 213 245 3,000 -50 Descending Atlanta TRACON
Thu 09:57:31 AM 33.6000 -84.0667 344° North 187 215 3,000  Level Atlanta TRACON
Thu 09:58:37 AM 33.6167 -84.1167 292° West 165 190 3,000  Level Atlanta TRACON
Thu 09:59:31 AM 33.6167 -84.1667 270° West 174 200 3,000  Level Atlanta TRACON
Thu 10:00:31 AM 33.6167 -84.2333 270° West 174 200 3,000  Level Atlanta TRACON
Thu 10:01:31 AM 33.6167 -84.2833 270° West 170 196 3,000 -350 Level Atlanta TRACON
Thu 10:02:31 AM 33.6167 -84.3333 270° West 153 176 2,300 -700 Descending Atlanta TRACON
Thu 10:03:31 AM 33.6167 -84.3833 270° West 135 155 1,600 -700 Descending Atlanta TRACON

Login

Don't have an account? Register now (free) for customized features, flight alerts, and more!